Time;durP1;ratioP1;P1;durP2;ratioP2;P2;SDS_P1;SDS_P2;PMS_P1;PMS_P2;Temp;Humidity;BMP_temperature;BMP_pressure;BME280_temperature;BME280_humidity;BME280_pressure;Samples;Min_cycle;Max_cycle;Signal;HPM_P1;HPM_P2
2021/06/17 00:01:07;;;;;;;5.45;3.52;;;;;;;15.25;64.36;101150.27;1573265;86;25981;-77
2021/06/17 00:03:34;;;;;;;3.33;3.00;;;;;;;15.20;64.76;101158.16;1582457;86;25787;-77
2021/06/17 00:06:01;;;;;;;5.37;3.30;;;;;;;15.15;64.98;101153.88;1613851;86;26046;-77
2021/06/17 00:08:28;;;;;;;5.85;3.20;;;;;;;15.12;65.21;101161.56;1629351;86;26055;-77
2021/06/17 00:10:55;;;;;;;7.00;3.52;;;;;;;15.09;65.38;101156.55;1566248;86;27368;-77
2021/06/17 00:13:27;;;;;;;6.35;3.17;;;;;;;15.00;65.26;101158.59;1607067;87;26033;-76
2021/06/17 00:15:58;;;;;;;5.60;2.70;;;;;;;14.91;65.24;101159.80;1605669;87;25900;-77
2021/06/17 00:18:27;;;;;;;5.90;3.33;;;;;;;14.81;65.31;101161.20;1624502;86;25856;-77
2021/06/17 00:20:54;;;;;;;3.72;3.20;;;;;;;14.74;65.55;101158.48;1564171;87;25869;-77
2021/06/17 00:23:22;;;;;;;3.95;3.35;;;;;;;14.70;65.69;101159.91;1630782;86;28153;-77
2021/06/17 00:25:49;;;;;;;3.77;3.47;;;;;;;14.66;65.62;101163.53;1622420;86;26147;-77
2021/06/17 00:28:16;;;;;;;6.35;3.70;;;;;;;14.60;65.64;101156.25;1627077;86;25846;-77
2021/06/17 00:30:43;;;;;;;5.80;3.17;;;;;;;14.55;65.88;101161.90;1607666;87;26475;-76
2021/06/17 00:33:10;;;;;;;4.12;3.45;;;;;;;14.52;66.17;101159.08;1605761;87;26135;-77
2021/06/17 00:35:38;;;;;;;5.15;3.58;;;;;;;14.52;66.09;101155.58;1625499;86;27620;-76
2021/06/17 00:38:05;;;;;;;3.45;3.12;;;;;;;14.49;66.23;101151.41;1627442;86;25850;-77
2021/06/17 00:40:33;;;;;;;4.83;3.60;;;;;;;14.49;66.29;101154.61;1566212;88;26539;-77
2021/06/17 00:43:02;;;;;;;5.20;3.77;;;;;;;14.46;66.27;101154.48;1602619;86;26426;-77
2021/06/17 00:45:35;;;;;;;6.70;3.87;;;;;;;14.40;66.30;101155.29;1622089;86;25952;-77
2021/06/17 00:48:04;;;;;;;4.87;3.25;;;;;;;14.33;66.33;101151.70;1622722;86;27544;-76
2021/06/17 00:50:39;;;;;;;6.92;3.17;;;;;;;14.32;66.55;101157.31;1581304;87;25854;-77
2021/06/17 00:53:12;;;;;;;6.08;4.55;;;;;;;14.33;66.79;101157.09;1624378;86;25894;-76
2021/06/17 00:55:44;;;;;;;6.05;4.20;;;;;;;14.32;66.90;101152.76;1614461;86;25901;-77
2021/06/17 00:58:12;;;;;;;9.18;4.80;;;;;;;14.34;67.06;101157.94;1601513;87;25810;-76
2021/06/17 01:00:39;;;;;;;5.53;4.45;;;;;;;14.34;67.08;101152.55;1560168;86;27495;-77
2021/06/17 01:03:07;;;;;;;9.58;3.65;;;;;;;14.29;66.86;101154.99;1615113;86;25864;-76
2021/06/17 01:05:34;;;;;;;7.83;4.50;;;;;;;14.18;66.79;101158.23;1589831;86;25840;-76
2021/06/17 01:08:19;;;;;;;6.87;4.80;;;;;;;14.16;67.09;101154.36;1603283;87;25959;-76
2021/06/17 01:11:24;;;;;;;5.80;4.62;;;;;;;14.18;67.20;101156.88;1600696;86;26049;-77
2021/06/17 01:14:07;;;;;;;5.17;4.40;;;;;;;14.20;67.35;101155.63;1619459;86;27492;-77
2021/06/17 01:16:44;;;;;;;7.85;4.95;;;;;;;14.22;67.43;101156.80;1606070;86;26231;-77
2021/06/17 01:19:34;;;;;;;5.08;4.40;;;;;;;14.22;67.42;101158.14;1628378;86;25833;-77
2021/06/17 01:22:22;;;;;;;7.97;4.60;;;;;;;14.19;67.35;101162.57;1606832;86;26594;-76
2021/06/17 01:25:32;;;;;;;10.32;4.15;;;;;;;14.16;67.52;101158.40;1624556;86;25896;-76
2021/06/17 01:28:12;;;;;;;4.57;4.03;;;;;;;14.16;67.29;101161.09;1589033;88;28360;-77
2021/06/17 01:30:53;;;;;;;6.12;4.08;;;;;;;14.11;67.26;101157.34;1625768;86;25879;-76
2021/06/17 01:33:24;;;;;;;6.35;4.28;;;;;;;14.05;67.38;101145.47;1592836;86;25824;-76
2021/06/17 01:35:54;;;;;;;7.80;4.90;;;;;;;14.01;67.33;101144.73;1578818;86;25864;-76
2021/06/17 01:38:24;;;;;;;9.10;4.72;;;;;;;13.99;67.40;101149.45;1615702;86;25355;-76
2021/06/17 01:40:52;;;;;;;6.87;4.50;;;;;;;13.99;67.47;101150.80;1621754;86;28217;-76
2021/06/17 01:43:20;;;;;;;7.28;5.28;;;;;;;14.00;67.69;101151.97;1583867;86;25386;-77
2021/06/17 01:45:49;;;;;;;9.45;5.05;;;;;;;14.01;67.81;101152.81;1613456;87;25906;-76
2021/06/17 01:48:17;;;;;;;8.15;4.45;;;;;;;14.02;67.81;101155.81;1624438;86;26525;-76
2021/06/17 01:50:46;;;;;;;7.15;4.25;;;;;;;14.01;67.81;101156.85;1623471;86;25770;-76
2021/06/17 01:53:17;;;;;;;6.62;4.72;;;;;;;13.96;67.70;101156.59;1562233;88;28306;-77
2021/06/17 01:55:45;;;;;;;9.53;4.72;;;;;;;13.90;67.69;101154.98;1601179;86;25852;-77
2021/06/17 01:58:15;;;;;;;9.38;4.90;;;;;;;13.85;67.76;101158.80;1623335;86;26525;-77
2021/06/17 02:00:46;;;;;;;7.45;4.45;;;;;;;13.83;67.86;101159.51;1628517;86;25813;-76
2021/06/17 02:03:15;;;;;;;8.03;4.40;;;;;;;13.78;67.90;101155.20;1578279;88;25943;-76
2021/06/17 02:05:43;;;;;;;8.88;4.97;;;;;;;13.75;68.12;101159.63;1615901;86;28234;-76
2021/06/17 02:08:11;;;;;;;5.42;4.15;;;;;;;13.73;68.27;101163.53;1606221;87;26565;-76
2021/06/17 02:10:41;;;;;;;6.30;4.28;;;;;;;13.72;68.11;101153.30;1622853;85;25865;-76
2021/06/17 02:13:12;;;;;;;9.80;4.50;;;;;;;13.69;68.05;101151.48;1561871;86;26724;-76
2021/06/17 02:15:42;;;;;;;9.50;5.00;;;;;;;13.68;68.04;101161.45;1607902;86;25816;-76
2021/06/17 02:18:09;;;;;;;12.28;5.75;;;;;;;13.67;68.31;101161.61;1627393;86;28167;-76
2021/06/17 02:20:39;;;;;;;7.05;5.00;;;;;;;13.69;68.49;101166.29;1626476;86;25465;-77
2021/06/17 02:23:14;;;;;;;7.55;4.80;;;;;;;13.71;68.52;101165.58;1604134;87;25975;-76
2021/06/17 02:25:45;;;;;;;11.78;5.28;;;;;;;13.70;68.63;101170.16;1619909;86;26643;-76
2021/06/17 02:28:20;;;;;;;7.35;5.05;;;;;;;13.67;68.78;101160.27;1624603;86;25864;-76
2021/06/17 02:30:48;;;;;;;5.90;4.90;;;;;;;13.65;68.72;101169.89;1593139;86;28263;-76
2021/06/17 02:33:18;;;;;;;8.43;5.12;;;;;;;13.59;68.69;101169.32;1582075;86;25872;-77
2021/06/17 02:35:51;;;;;;;9.90;5.15;;;;;;;13.57;68.84;101167.84;1625807;86;25890;-76
2021/06/17 02:38:26;;;;;;;9.18;5.33;;;;;;;13.58;69.04;101163.60;1606396;87;28089;-76
2021/06/17 02:40:57;;;;;;;11.12;5.60;;;;;;;13.58;69.00;101170.88;1628529;86;26537;-76
2021/06/17 02:43:25;;;;;;;9.15;5.47;;;;;;;13.55;68.98;101169.39;1624981;86;27471;-76
2021/06/17 02:45:54;;;;;;;6.67;5.10;;;;;;;13.52;68.91;101161.69;1618553;86;25870;-76
2021/06/17 02:48:21;;;;;;;11.75;5.00;;;;;;;13.50;69.02;101167.77;1624629;86;26730;-76
2021/06/17 02:50:49;;;;;;;8.53;5.15;;;;;;;13.47;69.04;101165.45;1589934;86;26581;-76
2021/06/17 02:53:16;;;;;;;6.67;5.28;;;;;;;13.50;69.27;101166.43;1595390;86;26303;-76
2021/06/17 02:55:43;;;;;;;8.13;5.20;;;;;;;13.51;69.36;101162.73;1603232;87;26907;-76
2021/06/17 02:58:47;;;;;;;9.30;5.25;;;;;;;13.53;69.52;101172.79;1627997;86;25803;-76
2021/06/17 03:01:23;;;;;;;8.43;5.72;;;;;;;13.55;69.57;101168.55;1602769;86;26373;-76
2021/06/17 03:03:58;;;;;;;11.45;5.47;;;;;;;13.59;69.74;101172.02;1624433;86;25933;-76
2021/06/17 03:06:29;;;;;;;6.60;5.35;;;;;;;13.62;69.80;101170.27;1612652;86;25858;-76
2021/06/17 03:08:59;;;;;;;12.23;5.83;;;;;;;13.63;69.87;101169.25;1626631;86;27522;-76
2021/06/17 03:11:32;;;;;;;10.18;5.25;;;;;;;13.63;70.00;101167.91;1584643;86;25909;-76
2021/06/17 03:14:16;;;;;;;10.50;5.40;;;;;;;13.66;70.05;101172.08;1596782;87;25894;-76
2021/06/17 03:16:47;;;;;;;8.90;5.55;;;;;;;13.73;70.08;101177.83;1608609;87;26638;-76
2021/06/17 03:19:18;;;;;;;9.35;4.85;;;;;;;13.79;69.97;101177.05;1622166;86;25705;-77
2021/06/17 03:21:50;;;;;;;9.78;5.53;;;;;;;13.84;69.96;101174.62;1593332;86;28155;-76
2021/06/17 03:24:22;;;;;;;10.82;5.60;;;;;;;13.89;70.01;101176.23;1640632;86;26005;-76
2021/06/17 03:26:53;;;;;;;8.13;5.70;;;;;;;13.96;70.10;101174.10;1608217;88;25800;-76
2021/06/17 03:29:24;;;;;;;7.30;5.53;;;;;;;14.05;70.07;101173.75;1623406;86;25919;-77
2021/06/17 03:31:55;;;;;;;8.73;5.35;;;;;;;14.16;70.09;101175.07;1608328;86;26677;-76
2021/06/17 03:34:24;;;;;;;10.58;5.72;;;;;;;14.27;70.00;101179.42;1639893;86;27532;-76
2021/06/17 03:36:52;;;;;;;8.53;6.00;;;;;;;14.36;69.87;101176.93;1630287;86;25754;-76
2021/06/17 03:39:21;;;;;;;10.82;5.92;;;;;;;14.46;69.84;101182.80;1627366;86;25853;-77
2021/06/17 03:41:50;;;;;;;8.10;5.60;;;;;;;14.53;69.83;101182.84;1595160;86;26583;-76
2021/06/17 03:44:18;;;;;;;7.75;5.30;;;;;;;14.59;69.86;101188.27;1610785;86;25914;-77
2021/06/17 03:46:46;;;;;;;11.38;5.20;;;;;;;14.66;69.92;101191.01;1610738;86;28124;-77
2021/06/17 03:49:14;;;;;;;9.35;5.87;;;;;;;14.71;69.83;101189.91;1634138;86;25853;-76
2021/06/17 03:51:42;;;;;;;7.65;5.17;;;;;;;14.73;69.99;101187.84;1587957;88;26471;-77
2021/06/17 03:54:10;;;;;;;9.50;5.70;;;;;;;14.75;70.01;101191.17;1613514;86;25847;-77
2021/06/17 03:56:38;;;;;;;16.57;5.78;;;;;;;14.79;70.03;101192.43;1599930;87;25805;-77
2021/06/17 03:59:06;;;;;;;12.45;6.67;;;;;;;14.84;70.15;101193.19;1626733;86;27576;-77
2021/06/17 04:01:34;;;;;;;7.70;5.00;;;;;;;14.88;70.27;101196.63;1591809;86;25854;-77
2021/06/17 04:04:01;;;;;;;7.92;5.00;;;;;;;14.96;70.40;101195.61;1606907;86;25999;-77
2021/06/17 04:06:29;;;;;;;9.40;5.67;;;;;;;15.01;70.29;101194.52;1616344;86;25894;-77
2021/06/17 04:08:58;;;;;;;11.55;6.03;;;;;;;15.08;70.51;101199.39;1617165;86;25843;-77
2021/06/17 04:11:26;;;;;;;9.70;5.30;;;;;;;15.18;70.50;101201.22;1602862;86;27475;-76
2021/06/17 04:13:53;;;;;;;10.35;5.67;;;;;;;15.25;70.42;101197.50;1637547;86;26620;-76
2021/06/17 04:16:24;;;;;;;11.38;5.62;;;;;;;15.37;70.78;101199.10;1610035;86;25409;-77
2021/06/17 04:18:54;;;;;;;13.70;5.58;;;;;;;15.46;70.71;101190.33;1621124;86;25775;-77
2021/06/17 04:21:22;;;;;;;11.33;5.25;;;;;;;15.56;70.59;101190.77;1627074;86;25880;-77
2021/06/17 04:23:56;;;;;;;8.78;4.92;;;;;;;15.66;70.66;101179.87;1602349;88;27571;-77
2021/06/17 04:26:25;;;;;;;8.18;4.90;;;;;;;15.73;70.16;101179.88;1582752;86;25923;-77
2021/06/17 04:28:56;;;;;;;10.23;5.10;;;;;;;15.80;70.24;101182.89;1625810;86;26409;-77
2021/06/17 04:31:24;;;;;;;8.53;5.80;;;;;;;15.88;70.15;101180.01;1582135;88;25972;-77
2021/06/17 04:33:51;;;;;;;8.00;4.87;;;;;;;15.99;69.89;101175.34;1595683;86;25813;-77
2021/06/17 04:36:19;;;;;;;9.90;4.92;;;;;;;16.09;69.64;101177.09;1609690;86;28000;-77
2021/06/17 04:38:48;;;;;;;6.70;4.87;;;;;;;16.16;69.76;101181.15;1628610;86;25893;-77
2021/06/17 04:41:17;;;;;;;7.80;4.60;;;;;;;16.23;69.48;101188.71;1568135;86;25917;-77
2021/06/17 04:43:45;;;;;;;6.15;4.60;;;;;;;16.31;69.22;101182.27;1618119;86;25898;-77
2021/06/17 04:46:14;;;;;;;5.47;4.45;;;;;;;16.39;69.21;101185.59;1605115;86;25920;-77
2021/06/17 04:48:43;;;;;;;4.60;4.22;;;;;;;16.45;69.20;101190.16;1626160;86;27473;-77
2021/06/17 04:51:13;;;;;;;10.60;5.17;;;;;;;16.54;69.14;101192.14;1611934;87;25916;-77
2021/06/17 04:53:40;;;;;;;8.73;5.23;;;;;;;16.63;69.33;101194.42;1619775;86;25620;-77
2021/06/17 04:56:07;;;;;;;8.08;4.58;;;;;;;16.74;69.03;101197.00;1589142;86;25874;-77
2021/06/17 04:58:36;;;;;;;8.13;4.55;;;;;;;16.84;68.73;101201.44;1626162;86;25818;-77
2021/06/17 05:01:05;;;;;;;8.68;4.30;;;;;;;16.92;68.72;101196.62;1584097;88;27654;-77
2021/06/17 05:03:32;;;;;;;7.50;4.28;;;;;;;17.05;69.01;101193.55;1619724;86;25817;-77
2021/06/17 05:06:01;;;;;;;8.03;4.25;;;;;;;17.16;68.96;101193.72;1603867;87;26478;-76
2021/06/17 05:11:13;;;;;;;5.65;3.55;;;;;;;17.45;68.52;101201.81;1588158;86;25994;-76
2021/06/17 05:13:43;;;;;;;4.90;4.00;;;;;;;17.57;68.15;101186.55;1619479;86;27739;-76
2021/06/17 05:16:09;;;;;;;8.70;4.30;;;;;;;17.70;68.23;101188.66;1629876;86;25820;-76
2021/06/17 05:18:36;;;;;;;8.00;3.95;;;;;;;17.86;68.05;101198.11;1617705;86;26592;-76
2021/06/17 05:21:04;;;;;;;4.33;3.20;;;;;;;18.00;67.52;101198.86;1615189;86;25964;-76
2021/06/17 05:23:31;;;;;;;6.05;3.70;;;;;;;18.10;67.42;101195.95;1602943;86;25359;-77
2021/06/17 05:25:59;;;;;;;5.00;3.98;;;;;;;18.24;67.58;101189.91;1606640;87;27588;-76
2021/06/17 05:28:29;;;;;;;8.65;3.72;;;;;;;18.39;67.32;101189.03;1624408;86;25799;-76
2021/06/17 05:30:59;;;;;;;6.67;3.85;;;;;;;18.55;66.77;101188.98;1594751;86;25844;-76
2021/06/17 05:33:30;;;;;;;6.72;3.35;;;;;;;18.73;66.10;101190.38;1606313;86;25872;-76
2021/06/17 05:35:59;;;;;;;6.45;3.10;;;;;;;18.87;65.73;101191.88;1610769;87;25901;-76
2021/06/17 05:38:27;;;;;;;6.92;3.40;;;;;;;18.97;65.50;101193.52;1607676;86;27523;-77
2021/06/17 05:40:54;;;;;;;7.55;3.25;;;;;;;19.09;65.68;101193.08;1586699;86;25851;-77
2021/06/17 05:43:22;;;;;;;5.08;2.70;;;;;;;19.21;64.75;101196.15;1612761;86;25972;-76
2021/06/17 05:45:50;;;;;;;7.28;3.10;;;;;;;19.31;64.44;101188.80;1588251;86;25711;-77
2021/06/17 05:48:17;;;;;;;4.45;2.50;;;;;;;19.44;63.04;101192.73;1611862;86;26671;-77
2021/06/17 05:50:44;;;;;;;4.92;2.60;;;;;;;19.60;62.79;101187.18;1580387;87;27545;-77
2021/06/17 05:53:11;;;;;;;8.25;2.92;;;;;;;19.72;62.64;101183.44;1612030;86;25923;-77
2021/06/17 05:55:38;;;;;;;5.42;3.20;;;;;;;19.86;62.66;101186.78;1604406;87;26093;-77
2021/06/17 05:58:05;;;;;;;8.65;3.22;;;;;;;19.99;61.00;101193.37;1619947;86;25875;-77
2021/06/17 06:00:33;;;;;;;6.60;3.02;;;;;;;20.08;60.36;101196.03;1623601;86;25629;-77
2021/06/17 06:03:00;;;;;;;7.17;3.60;;;;;;;20.21;60.32;101196.41;1620634;85;28761;-77
2021/06/17 06:05:27;;;;;;;7.12;3.47;;;;;;;20.32;60.85;101203.72;1611324;86;25944;-77
2021/06/17 06:07:59;;;;;;;7.03;3.35;;;;;;;20.42;60.81;101200.70;1625661;86;25882;-77
2021/06/17 06:10:27;;;;;;;8.23;3.47;;;;;;;20.50;60.03;101210.42;1603085;86;25859;-77
2021/06/17 06:12:54;;;;;;;9.50;4.10;;;;;;;20.60;60.32;101214.73;1590216;88;25952;-77
2021/06/17 06:15:22;;;;;;;9.73;4.55;;;;;;;20.70;59.72;101217.67;1621775;86;28198;-77
2021/06/17 06:17:49;;;;;;;6.28;4.37;;;;;;;20.81;58.59;101224.20;1568300;88;25918;-77
2021/06/17 06:20:16;;;;;;;7.53;4.10;;;;;;;20.89;58.50;101230.64;1624974;86;25760;-77
2021/06/17 06:22:43;;;;;;;9.65;5.53;;;;;;;20.97;59.01;101236.55;1632898;85;26004;-77
2021/06/17 06:25:11;;;;;;;9.40;4.72;;;;;;;21.04;58.80;101238.61;1624262;86;25856;-77
2021/06/17 06:27:41;;;;;;;8.33;4.75;;;;;;;21.09;58.23;101229.20;1576290;86;28182;-77
2021/06/17 06:30:09;;;;;;;7.90;4.67;;;;;;;21.14;57.90;101232.04;1603492;87;25871;-76
2021/06/17 06:32:36;;;;;;;6.22;4.17;;;;;;;21.24;58.11;101225.95;1606841;86;25897;-77
2021/06/17 06:35:06;;;;;;;7.87;4.25;;;;;;;21.31;57.69;101230.22;1626383;86;25812;-77
2021/06/17 06:37:33;;;;;;;8.95;4.85;;;;;;;21.40;57.89;101234.75;1581905;87;25973;-77
2021/06/17 06:40:01;;;;;;;5.60;3.47;;;;;;;21.49;57.63;101239.55;1590521;86;27471;-77
2021/06/17 06:42:28;;;;;;;6.62;4.17;;;;;;;21.59;57.58;101240.83;1619150;87;26001;-77
2021/06/17 06:44:55;;;;;;;4.70;3.12;;;;;;;21.68;57.03;101240.21;1628291;86;25822;-77
2021/06/17 06:47:22;;;;;;;8.90;3.55;;;;;;;21.79;57.26;101239.86;1554026;86;25913;-77
2021/06/17 06:49:49;;;;;;;8.05;3.85;;;;;;;21.89;56.79;101242.27;1603939;86;26305;-77
2021/06/17 06:52:16;;;;;;;9.68;3.92;;;;;;;21.99;56.38;101240.24;1636440;86;27628;-77
2021/06/17 06:54:43;;;;;;;8.28;3.12;;;;;;;22.08;55.97;101239.61;1614470;86;26630;-77
2021/06/17 06:57:10;;;;;;;11.40;3.30;;;;;;;22.18;55.75;101239.77;1605673;87;25799;-77
2021/06/17 06:59:37;;;;;;;8.60;3.00;;;;;;;22.26;55.16;101234.45;1611611;85;26592;-77
2021/06/17 07:02:04;;;;;;;7.30;3.17;;;;;;;22.32;54.59;101234.82;1624404;85;25784;-77
2021/06/17 07:04:33;;;;;;;5.67;2.15;;;;;;;22.42;55.41;101238.23;1631263;86;27523;-77
2021/06/17 07:07:00;;;;;;;7.03;2.80;;;;;;;22.52;54.21;101240.58;1594481;88;25959;-77
2021/06/17 07:09:27;;;;;;;6.83;2.37;;;;;;;22.61;53.25;101241.85;1599204;86;26498;-77
2021/06/17 07:11:54;;;;;;;9.28;2.65;;;;;;;22.67;53.21;101240.84;1630085;86;26038;-77
2021/06/17 07:14:21;;;;;;;4.35;2.30;;;;;;;22.74;52.84;101241.50;1624635;86;25512;-77
2021/06/17 07:16:48;;;;;;;4.17;2.00;;;;;;;22.80;52.95;101243.23;1561065;87;27512;-77
2021/06/17 07:19:16;;;;;;;4.42;2.45;;;;;;;22.89;53.23;101247.19;1617877;87;25650;-78
2021/06/17 07:21:43;;;;;;;6.28;2.33;;;;;;;23.00;52.65;101245.42;1610775;86;25860;-77
2021/06/17 07:24:10;;;;;;;8.08;1.92;;;;;;;23.08;53.01;101253.17;1617780;86;25912;-77
2021/06/17 07:26:37;;;;;;;6.20;2.08;;;;;;;23.18;53.03;101264.23;1593626;86;25875;-77
2021/06/17 07:29:04;;;;;;;9.33;2.58;;;;;;;23.27;53.36;101260.52;1642167;86;27524;-78
2021/06/17 07:31:32;;;;;;;4.62;2.12;;;;;;;23.33;52.18;101256.26;1608945;86;25943;-78
2021/06/17 07:33:59;;;;;;;7.65;2.15;;;;;;;23.37;52.27;101260.16;1619129;86;26486;-77
2021/06/17 07:36:26;;;;;;;6.15;1.85;;;;;;;23.45;51.18;101258.34;1580828;86;25955;-77
2021/06/17 07:38:53;;;;;;;6.83;2.40;;;;;;;23.57;50.64;101252.71;1615917;86;25418;-77
2021/06/17 07:41:20;;;;;;;7.12;2.05;;;;;;;23.64;51.06;101255.55;1628966;86;27582;-78
2021/06/17 07:43:47;;;;;;;6.55;1.98;;;;;;;23.72;50.43;101255.08;1615925;87;26680;-77
2021/06/17 07:46:15;;;;;;;3.37;1.92;;;;;;;23.76;49.41;101256.21;1588951;86;25895;-77
2021/06/17 07:48:43;;;;;;;4.95;2.00;;;;;;;23.83;48.90;101256.55;1626586;86;25975;-77
2021/06/17 07:51:10;;;;;;;7.25;2.20;;;;;;;23.90;48.75;101265.38;1571551;87;26461;-77
2021/06/17 07:53:38;;;;;;;4.78;2.25;;;;;;;23.95;48.48;101258.60;1586163;86;27618;-77
2021/06/17 07:56:05;;;;;;;5.90;2.17;;;;;;;24.00;48.07;101259.47;1561916;86;25926;-77
2021/06/17 07:58:32;;;;;;;7.72;2.20;;;;;;;24.04;47.77;101259.27;1598825;86;25908;-77
2021/06/17 08:00:59;;;;;;;4.58;2.10;;;;;;;24.10;48.12;101265.62;1610732;86;25783;-77
2021/06/17 08:03:27;;;;;;;6.92;2.30;;;;;;;24.14;48.00;101264.85;1629773;86;25842;-77
2021/06/17 08:05:54;;;;;;;7.80;2.52;;;;;;;24.16;48.26;101265.41;1587954;86;27690;-76
2021/06/17 08:08:22;;;;;;;7.42;2.00;;;;;;;24.23;48.28;101253.68;1587621;87;25915;-77
2021/06/17 08:10:49;;;;;;;7.53;2.60;;;;;;;24.27;48.42;101254.81;1651411;85;25865;-77
2021/06/17 08:13:16;;;;;;;7.12;2.52;;;;;;;24.32;47.62;101249.38;1637568;86;26431;-77
2021/06/17 08:15:44;;;;;;;5.67;1.92;;;;;;;24.40;48.53;101250.27;1615448;86;25763;-77
2021/06/17 08:18:11;;;;;;;12.37;2.50;;;;;;;24.48;48.02;101252.54;1604491;86;27627;-77
2021/06/17 08:20:38;;;;;;;13.48;3.17;;;;;;;24.57;47.32;101246.56;1624888;86;26592;-77
2021/06/17 08:23:06;;;;;;;4.40;2.50;;;;;;;24.65;47.40;101250.17;1620434;86;25776;-77
2021/06/17 08:25:33;;;;;;;5.05;2.27;;;;;;;24.71;48.62;101255.97;1584479;86;25858;-77
2021/06/17 08:28:04;;;;;;;6.55;2.22;;;;;;;24.74;48.14;101248.09;1613250;87;25861;-78
2021/06/17 08:30:31;;;;;;;11.83;2.20;;;;;;;24.75;47.27;101244.78;1622494;86;28343;-78
2021/06/17 08:32:59;;;;;;;5.33;2.47;;;;;;;24.78;48.10;101249.75;1624990;86;25749;-78
2021/06/17 08:35:26;;;;;;;5.25;2.52;;;;;;;24.90;47.99;101256.67;1602494;86;25941;-78
2021/06/17 08:37:54;;;;;;;4.92;2.40;;;;;;;24.99;47.94;101254.25;1563392;86;26624;-78
2021/06/17 08:40:33;;;;;;;7.67;2.20;;;;;;;25.08;48.27;101254.88;1623891;86;25834;-78
2021/06/17 08:43:01;;;;;;;6.25;2.70;;;;;;;25.16;48.07;101257.09;1624961;86;27478;-78
2021/06/17 08:45:29;;;;;;;6.50;2.30;;;;;;;25.22;47.92;101257.93;1554700;89;25936;-78
2021/06/17 08:47:56;;;;;;;6.33;2.70;;;;;;;25.28;47.54;101262.91;1590409;86;25798;-78
2021/06/17 08:50:25;;;;;;;2.92;2.62;;;;;;;25.32;47.18;101259.34;1620587;86;25852;-78
2021/06/17 08:52:52;;;;;;;7.60;2.72;;;;;;;25.28;47.38;101260.17;1614104;88;25974;-78
2021/06/17 08:55:25;;;;;;;4.67;2.25;;;;;;;25.31;47.26;101263.73;1555051;88;27365;-77
2021/06/17 08:57:55;;;;;;;4.35;2.90;;;;;;;25.37;47.82;101265.39;1614948;87;26039;-78
2021/06/17 09:00:32;;;;;;;3.22;2.47;;;;;;;25.41;46.62;101259.10;1603281;88;25435;-78
2021/06/17 09:03:04;;;;;;;5.87;2.65;;;;;;;25.47;47.06;101265.48;1610568;88;25818;-78
2021/06/17 09:05:34;;;;;;;7.08;3.30;;;;;;;25.49;47.26;101270.16;1577455;88;25897;-78
2021/06/17 09:08:02;;;;;;;5.95;2.90;;;;;;;25.55;46.59;101267.70;1581945;88;27419;-78
2021/06/17 09:10:30;;;;;;;4.33;2.62;;;;;;;25.58;46.18;101265.23;1617325;86;25795;-78
2021/06/17 09:13:02;;;;;;;8.08;2.70;;;;;;;25.61;46.51;101261.96;1618893;87;25315;-78
2021/06/17 09:15:55;;;;;;;5.62;3.25;;;;;;;25.62;45.81;101272.39;1576924;89;25792;-78
2021/06/17 09:18:28;;;;;;;5.65;2.42;;;;;;;25.65;45.84;101269.93;1553748;87;25593;-77
2021/06/17 09:21:10;;;;;;;4.55;2.30;;;;;;;25.70;45.10;101275.44;1593496;87;27528;-78
2021/06/17 09:23:45;;;;;;;7.70;2.60;;;;;;;25.68;45.42;101272.69;1612182;86;25815;-78
2021/06/17 09:26:20;;;;;;;5.20;2.60;;;;;;;25.66;45.06;101281.16;1573992;87;25894;-77
2021/06/17 09:29:01;;;;;;;3.90;2.45;;;;;;;25.75;46.42;101278.72;1614891;87;26550;-78
2021/06/17 09:31:41;;;;;;;10.10;2.52;;;;;;;25.81;46.20;101272.97;1609052;86;25846;-78
2021/06/17 09:34:10;;;;;;;6.60;2.70;;;;;;;25.93;46.17;101277.69;1617427;86;27543;-78
2021/06/17 09:36:40;;;;;;;12.88;3.52;;;;;;;26.01;44.60;101281.80;1558460;86;25409;-78
2021/06/17 09:39:15;;;;;;;5.57;2.47;;;;;;;25.97;44.67;101271.92;1618514;86;25819;-78
2021/06/17 09:41:50;;;;;;;7.35;2.50;;;;;;;26.02;43.89;101273.28;1621965;86;25964;-78
2021/06/17 09:44:35;;;;;;;3.85;2.20;;;;;;;26.07;43.20;101253.82;1626849;86;25357;-78
2021/06/17 09:47:19;;;;;;;3.75;2.33;;;;;;;26.13;44.27;101260.45;1625472;86;27468;-78
2021/06/17 09:49:47;;;;;;;4.33;2.62;;;;;;;26.21;43.41;101264.02;1630300;86;25871;-78
2021/06/17 09:52:16;;;;;;;5.08;2.50;;;;;;;26.25;44.20;101266.48;1604037;86;25964;-78
2021/06/17 09:54:43;;;;;;;8.63;2.92;;;;;;;26.24;43.83;101267.58;1589960;86;25876;-78
2021/06/17 09:57:20;;;;;;;6.85;2.80;;;;;;;26.30;43.55;101260.17;1611877;86;25882;-78
2021/06/17 09:59:50;;;;;;;7.17;2.30;;;;;;;26.40;43.43;101256.05;1604918;86;27472;-78
2021/06/17 10:02:34;;;;;;;5.40;2.30;;;;;;;26.41;43.40;101250.84;1622056;86;25915;-78
2021/06/17 10:05:15;;;;;;;3.40;2.37;;;;;;;26.34;42.84;101255.78;1632153;86;25777;-78
2021/06/17 10:07:43;;;;;;;9.45;2.58;;;;;;;26.34;42.29;101239.30;1603797;87;26459;-78
2021/06/17 10:10:13;;;;;;;3.00;2.55;;;;;;;26.39;43.22;101254.41;1609951;86;25852;-78
2021/06/17 10:12:42;;;;;;;3.70;2.12;;;;;;;26.43;42.99;101254.94;1652230;86;27565;-78
2021/06/17 10:15:10;;;;;;;4.58;2.77;;;;;;;26.48;42.08;101240.37;1611335;86;25858;-78
2021/06/17 10:17:38;;;;;;;5.47;2.45;;;;;;;26.58;43.10;101240.38;1647963;86;25792;-78
2021/06/17 10:20:09;;;;;;;4.58;2.40;;;;;;;26.69;42.82;101234.57;1594080;87;26200;-78
2021/06/17 10:22:37;;;;;;;8.38;2.42;;;;;;;26.78;42.54;101228.53;1630986;86;26173;-78
2021/06/17 10:25:08;;;;;;;4.87;2.77;;;;;;;26.84;43.66;101226.87;1603374;86;27550;-78
2021/06/17 10:27:37;;;;;;;;;;;;;;;26.91;43.67;101223.28;1626137;86;25772;-78
2021/06/17 10:30:07;;;;;;;4.47;2.50;;;;;;;26.91;43.22;101228.78;1630961;86;25770;-78
2021/06/17 10:32:46;;;;;;;4.40;2.40;;;;;;;26.95;42.95;101224.91;1621791;86;26412;-78
2021/06/17 10:35:30;;;;;;;7.12;2.85;;;;;;;26.95;42.85;101225.73;1593752;86;26410;-78
2021/06/17 10:38:04;;;;;;;3.62;1.95;;;;;;;26.91;41.96;101216.95;1603991;86;27488;-78
2021/06/17 10:40:33;;;;;;;8.00;2.42;;;;;;;26.86;42.95;101221.11;1635390;86;26526;-78
2021/06/17 10:43:00;;;;;;;5.10;2.25;;;;;;;26.83;41.31;101219.73;1625888;86;25896;-78
2021/06/17 10:45:41;;;;;;;7.47;2.70;;;;;;;26.84;43.07;101219.20;1585372;88;25945;-78
2021/06/17 10:48:17;;;;;;;4.72;2.37;;;;;;;26.96;43.32;101222.45;1583070;86;25888;-79
2021/06/17 10:51:02;;;;;;;2.83;2.20;;;;;;;27.07;42.06;101216.64;1623149;86;27484;-78
2021/06/17 10:53:39;;;;;;;4.12;2.45;;;;;;;27.10;42.69;101220.19;1622284;86;26522;-79
2021/06/17 10:56:20;;;;;;;5.67;2.22;;;;;;;27.20;42.00;101222.09;1584990;86;26711;-78
2021/06/17 10:58:51;;;;;;;6.30;2.12;;;;;;;27.27;41.38;101214.33;1573426;86;25775;-79
2021/06/17 11:01:33;;;;;;;;;;;;;;;27.23;41.98;101217.38;1629449;86;25868;-78
2021/06/17 11:04:11;;;;;;;3.77;2.95;;;;;;;27.13;41.49;101219.64;1627906;86;27298;-78
2021/06/17 11:07:08;;;;;;;6.55;3.27;;;;;;;27.19;42.10;101220.43;1619056;86;25870;-79
2021/06/17 11:09:47;;;;;;;3.00;2.20;;;;;;;27.30;41.69;101217.36;1602274;85;25791;-79
2021/06/17 11:12:24;;;;;;;8.97;2.77;;;;;;;27.35;42.08;101221.48;1620727;86;26461;-78
2021/06/17 11:14:58;;;;;;;5.25;2.27;;;;;;;27.33;41.03;101209.90;1607023;87;25817;-79
2021/06/17 11:17:34;;;;;;;3.72;2.33;;;;;;;27.23;41.04;101214.62;1603632;86;27513;-78
2021/06/17 11:20:16;;;;;;;4.50;2.20;;;;;;;27.12;40.94;101214.40;1629141;86;26192;-78
2021/06/17 11:22:50;;;;;;;4.10;2.45;;;;;;;27.19;41.80;101221.26;1624467;86;25810;-79
2021/06/17 11:25:24;;;;;;;11.63;2.40;;;;;;;27.25;42.05;101214.62;1626936;86;26208;-78
2021/06/17 11:28:12;;;;;;;3.55;2.17;;;;;;;27.38;42.96;101215.42;1607284;86;25888;-79
2021/06/17 11:30:46;;;;;;;6.05;2.65;;;;;;;27.52;42.76;101207.92;1605132;86;28128;-78
2021/06/17 11:33:24;;;;;;;6.12;2.87;;;;;;;27.53;41.97;101204.88;1625971;86;26028;-78
2021/06/17 11:36:04;;;;;;;6.08;2.20;;;;;;;27.47;41.74;101194.47;1618656;86;25804;-78
2021/06/17 11:38:31;;;;;;;4.47;2.00;;;;;;;27.46;41.21;101195.56;1601376;87;25886;-78
2021/06/17 11:41:11;;;;;;;4.12;2.00;;;;;;;27.50;41.76;101191.70;1604403;86;25910;-78
2021/06/17 11:43:40;;;;;;;4.13;2.27;;;;;;;27.65;41.69;101195.70;1624836;86;28448;-78